createdAt,value
2023-02-25T00:02:02.679Z,3.91
2023-02-25T00:04:32.383Z,3.92
2023-02-25T00:07:02.728Z,3.93
2023-02-25T00:09:31.849Z,3.94
2023-02-25T00:12:00.278Z,3.93
2023-02-25T00:14:28.757Z,3.93
2023-02-25T00:16:57.560Z,3.93
2023-02-25T00:19:26.974Z,3.92
2023-02-25T00:21:55.449Z,3.91
2023-02-25T00:24:25.424Z,3.90
2023-02-25T00:26:53.870Z,3.90
2023-02-25T00:29:23.230Z,3.89
2023-02-25T00:31:51.841Z,3.88
2023-02-25T00:34:20.488Z,3.88
2023-02-25T00:36:50.197Z,3.87
2023-02-25T00:39:18.996Z,3.87
2023-02-25T00:41:48.846Z,3.89
2023-02-25T00:44:17.321Z,3.88
2023-02-25T00:46:45.889Z,3.89
2023-02-25T00:49:23.929Z,3.88
2023-02-25T00:51:58.033Z,3.91
2023-02-25T00:54:28.551Z,3.92
2023-02-25T00:56:58.781Z,3.91
2023-02-25T00:59:27.361Z,3.91
2023-02-25T01:01:56.065Z,3.90
2023-02-25T01:04:24.979Z,3.90
2023-02-25T01:06:55.059Z,3.91
2023-02-25T01:09:23.819Z,3.91
2023-02-25T01:11:52.662Z,3.88
2023-02-25T01:14:24.042Z,3.85
2023-02-25T01:16:56.193Z,3.85
2023-02-25T01:19:26.286Z,3.83
2023-02-25T01:21:57.260Z,3.84
2023-02-25T01:24:29.266Z,3.84
2023-02-25T01:26:59.829Z,3.85
2023-02-25T01:29:31.662Z,3.84
2023-02-25T01:32:01.959Z,3.84
2023-02-25T01:34:31.766Z,3.84
2023-02-25T01:37:03.654Z,3.84
2023-02-25T01:39:33.250Z,3.83
2023-02-25T01:42:05.066Z,3.85
2023-02-25T01:44:40.082Z,3.86
2023-02-25T01:47:10.131Z,3.85
2023-02-25T01:49:42.175Z,3.83
2023-02-25T01:52:14.679Z,3.82
2023-02-25T01:54:45.122Z,3.82
2023-02-25T01:57:16.297Z,3.82
2023-02-25T01:59:47.959Z,3.81
2023-02-25T02:02:19.689Z,3.80
2023-02-25T02:04:51.170Z,3.79
2023-02-25T02:07:24.644Z,3.77
2023-02-25T02:09:56.912Z,3.78
2023-02-25T02:12:26.893Z,3.77
2023-02-25T02:15:00.605Z,3.76
2023-02-25T02:17:34.772Z,3.76
2023-02-25T02:20:13.084Z,3.75
2023-02-25T02:22:52.346Z,3.75
2023-02-25T02:25:51.561Z,3.75
2023-02-25T02:28:58.333Z,3.77
2023-02-25T02:31:42.757Z,3.76
2023-02-25T02:34:26.647Z,3.78
2023-02-25T02:37:06.673Z,3.79
2023-02-25T02:39:48.025Z,3.79
2023-02-25T02:42:27.336Z,3.80
2023-02-25T02:45:02.990Z,3.81
2023-02-25T02:47:36.227Z,3.82
2023-02-25T02:50:09.086Z,3.82
2023-02-25T02:52:42.602Z,3.82
2023-02-25T02:55:22.222Z,3.80
2023-02-25T02:57:56.721Z,3.80
2023-02-25T03:00:29.057Z,3.79
2023-02-25T03:03:06.599Z,3.77
2023-02-25T03:05:38.167Z,3.77
2023-02-25T03:08:11.848Z,3.78
2023-02-25T03:10:40.400Z,3.78
2023-02-25T03:13:08.882Z,3.78
2023-02-25T03:15:40.586Z,3.80
2023-02-25T03:18:19.279Z,3.78
2023-02-25T03:20:50.373Z,3.78
2023-02-25T03:23:21.992Z,3.78
2023-02-25T03:25:57.778Z,3.77
2023-02-25T03:28:31.765Z,3.76
2023-02-25T03:31:07.633Z,3.76
2023-02-25T03:33:47.841Z,3.75
2023-02-25T03:36:22.756Z,3.75
2023-02-25T03:38:57.173Z,3.74
2023-02-25T03:41:35.432Z,3.75
2023-02-25T03:44:07.996Z,3.75
2023-02-25T03:46:38.116Z,3.75
2023-02-25T03:49:11.209Z,3.76
2023-02-25T03:51:42.575Z,3.77
2023-02-25T03:54:11.251Z,3.75
2023-02-25T03:56:44.722Z,3.77
2023-02-25T03:59:13.504Z,3.77
2023-02-25T04:01:45.839Z,3.77
2023-02-25T04:04:15.717Z,3.78
2023-02-25T04:06:44.268Z,3.77
2023-02-25T04:09:12.861Z,3.78
2023-02-25T04:11:41.410Z,3.78
2023-02-25T04:14:09.934Z,3.78
2023-02-25T04:16:38.433Z,3.78
2023-02-25T04:19:06.931Z,3.79
2023-02-25T04:21:37.989Z,3.79
2023-02-25T04:24:08.115Z,3.79
2023-02-25T04:26:37.245Z,3.79
2023-02-25T04:29:05.878Z,3.80
2023-02-25T04:31:34.794Z,3.79
2023-02-25T04:34:03.324Z,3.78
2023-02-25T04:36:33.602Z,3.78
2023-02-25T04:39:05.981Z,3.78
2023-02-25T04:41:36.804Z,3.78
2023-02-25T04:44:06.576Z,3.78
2023-02-25T04:46:37.351Z,3.80
2023-02-25T04:49:07.101Z,3.80
2023-02-25T04:51:38.617Z,3.80
2023-02-25T04:54:08.683Z,3.82
2023-02-25T04:56:37.878Z,3.82
2023-02-25T04:59:07.424Z,3.81
2023-02-25T05:01:35.904Z,3.81
2023-02-25T05:04:04.707Z,3.82
2023-02-25T05:06:33.461Z,3.82
2023-02-25T05:09:02.184Z,3.82
2023-02-25T05:11:32.064Z,3.82
2023-02-25T05:14:00.608Z,3.82
2023-02-25T05:16:29.212Z,3.82
2023-02-25T05:18:57.790Z,3.81
2023-02-25T05:21:29.381Z,3.81
2023-02-25T05:23:57.860Z,3.79
2023-02-25T05:26:26.656Z,3.79
2023-02-25T05:28:58.734Z,3.80
2023-02-25T05:31:27.468Z,3.81
2023-02-25T05:33:55.967Z,3.81
2023-02-25T05:36:27.886Z,3.81
2023-02-25T05:39:02.678Z,3.81
2023-02-25T05:41:31.640Z,3.79
2023-02-25T05:44:01.455Z,3.79
2023-02-25T05:46:29.957Z,3.79
2023-02-25T05:48:58.585Z,3.79
2023-02-25T05:51:27.142Z,3.79
2023-02-25T05:53:55.626Z,3.78
2023-02-25T05:56:28.850Z,3.76
2023-02-25T05:58:58.545Z,3.72
2023-02-25T06:01:29.519Z,3.72
2023-02-25T06:03:59.504Z,3.71
2023-02-25T06:06:30.005Z,3.68
2023-02-25T06:08:59.085Z,3.70
2023-02-25T06:11:30.550Z,3.70
2023-02-25T06:14:00.203Z,3.70
2023-02-25T06:16:32.240Z,3.70
2023-02-25T06:19:02.586Z,3.70
2023-02-25T06:21:31.367Z,3.71
2023-02-25T06:24:00.375Z,3.71
2023-02-25T06:26:29.075Z,3.72
2023-02-25T06:28:58.026Z,3.73
2023-02-25T06:31:26.631Z,3.73
2023-02-25T06:33:56.624Z,3.74
2023-02-25T06:36:25.374Z,3.76
2023-02-25T06:38:54.120Z,3.74
2023-02-25T06:41:23.925Z,3.74
2023-02-25T06:43:52.939Z,3.74
2023-02-25T06:46:24.540Z,3.75
2023-02-25T06:48:53.386Z,3.74
2023-02-25T06:51:23.326Z,3.75
2023-02-25T06:53:53.114Z,3.76
2023-02-25T06:56:22.636Z,3.76
2023-02-25T06:58:52.546Z,3.77
2023-02-25T07:01:21.176Z,3.77
2023-02-25T07:03:50.825Z,3.78
2023-02-25T07:06:19.444Z,3.79
2023-02-25T07:08:49.249Z,3.79
2023-02-25T07:11:29.593Z,3.79
2023-02-25T07:13:58.218Z,3.79
2023-02-25T07:16:26.814Z,3.80
2023-02-25T07:18:55.371Z,3.79
2023-02-25T07:21:24.213Z,3.82
2023-02-25T07:23:53.976Z,3.83
2023-02-25T07:26:22.815Z,3.84
2023-02-25T07:28:51.589Z,3.87
2023-02-25T07:31:22.263Z,3.88
2023-02-25T07:33:51.083Z,3.89
2023-02-25T07:36:19.918Z,3.90
2023-02-25T07:38:49.433Z,3.95
2023-02-25T07:41:20.559Z,3.96
2023-02-25T07:43:49.120Z,3.99
2023-02-25T07:46:17.712Z,4.00
2023-02-25T07:48:46.200Z,4.02
2023-02-25T07:51:18.494Z,4.04
2023-02-25T07:53:47.099Z,4.04
2023-02-25T07:56:16.458Z,4.05
2023-02-25T07:58:46.467Z,4.05
2023-02-25T08:01:26.180Z,4.07
2023-02-25T08:03:57.676Z,4.07
2023-02-25T08:06:27.569Z,4.08
2023-02-25T08:08:56.326Z,4.08
2023-02-25T08:11:27.364Z,4.08
2023-02-25T08:13:57.162Z,4.09
2023-02-25T08:16:25.595Z,4.08
2023-02-25T08:18:54.910Z,4.08
2023-02-25T08:21:24.638Z,4.07
2023-02-25T08:23:54.469Z,4.06
2023-02-25T08:26:23.858Z,4.06
2023-02-25T08:28:52.668Z,4.05
2023-02-25T08:31:23.253Z,4.06
2023-02-25T08:33:53.210Z,4.06
2023-02-25T08:36:24.091Z,4.05
2023-02-25T08:38:52.929Z,4.03
2023-02-25T08:41:23.562Z,4.03
2023-02-25T08:43:54.648Z,4.01
2023-02-25T08:46:26.178Z,4.00
2023-02-25T08:48:55.956Z,4.00
2023-02-25T08:51:33.833Z,4.02
2023-02-25T08:54:04.437Z,4.05
2023-02-25T08:56:33.385Z,4.06
2023-02-25T08:59:02.378Z,4.09
2023-02-25T09:01:44.760Z,4.11
2023-02-25T09:04:14.513Z,4.14
2023-02-25T09:06:43.074Z,4.16
2023-02-25T09:09:13.348Z,4.17
2023-02-25T09:11:42.294Z,4.21
2023-02-25T09:14:11.579Z,4.25
2023-02-25T09:16:41.925Z,4.30
2023-02-25T09:19:10.860Z,4.36
2023-02-25T09:21:40.393Z,4.41
2023-02-25T09:24:09.809Z,4.47
2023-02-25T09:26:38.345Z,4.51
2023-02-25T09:29:08.117Z,4.57
2023-02-25T09:31:37.732Z,4.64
2023-02-25T09:34:10.627Z,4.70
2023-02-25T09:36:39.118Z,4.75
2023-02-25T09:39:10.404Z,4.79
2023-02-25T09:41:46.172Z,4.82
2023-02-25T09:44:17.627Z,4.86
2023-02-25T09:46:50.349Z,4.88
2023-02-25T09:49:27.094Z,4.92
2023-02-25T09:52:02.416Z,4.97
2023-02-25T09:54:35.951Z,4.98
2023-02-25T09:57:07.667Z,5.01
2023-02-25T09:59:36.156Z,5.01
2023-02-25T10:02:28.509Z,4.95
2023-02-25T10:05:10.305Z,4.93
2023-02-25T10:07:50.287Z,4.88
2023-02-25T10:10:24.741Z,4.84
2023-02-25T10:13:03.044Z,4.79
2023-02-25T10:15:52.372Z,4.76
2023-02-25T10:18:43.993Z,4.64
2023-02-25T10:21:25.196Z,4.48
2023-02-25T10:24:10.629Z,4.38
2023-02-25T10:26:43.443Z,4.30
2023-02-25T10:29:18.149Z,4.23
2023-02-25T10:31:46.704Z,4.18
2023-02-25T10:34:22.462Z,4.15
2023-02-25T10:36:56.509Z,4.11
2023-02-25T10:39:26.596Z,4.11
2023-02-25T10:41:55.634Z,4.14
2023-02-25T10:44:24.147Z,4.20
2023-02-25T10:46:56.772Z,4.25
2023-02-25T10:49:27.960Z,4.30
2023-02-25T10:52:03.330Z,4.35
2023-02-25T10:54:33.459Z,4.40
2023-02-25T10:57:08.479Z,4.45
2023-02-25T10:59:39.345Z,4.52
2023-02-25T11:02:23.430Z,4.61
2023-02-25T11:04:53.331Z,4.65
2023-02-25T11:07:34.258Z,4.65
2023-02-25T11:10:17.570Z,4.67
2023-02-25T11:12:48.302Z,4.73
2023-02-25T11:15:43.602Z,4.82
2023-02-25T11:18:20.985Z,4.90
2023-02-25T11:20:53.017Z,4.97
2023-02-25T11:23:26.564Z,5.03
2023-02-25T11:25:57.509Z,5.10
2023-02-25T11:28:32.397Z,5.14
2023-02-25T11:31:14.043Z,5.21
2023-02-25T11:33:46.936Z,5.24
2023-02-25T11:36:23.490Z,5.27
2023-02-25T11:39:09.237Z,5.30
2023-02-25T11:41:37.728Z,5.32
2023-02-25T11:44:21.492Z,5.34
2023-02-25T11:47:30.376Z,5.36
2023-02-25T11:50:13.427Z,5.44
2023-02-25T11:52:45.381Z,5.50
2023-02-25T11:55:31.515Z,5.58
2023-02-25T11:58:07.452Z,5.68
2023-02-25T12:00:45.025Z,5.80
2023-02-25T12:03:47.290Z,5.92
2023-02-25T12:06:33.706Z,6.03
2023-02-25T12:09:24.633Z,6.14
2023-02-25T12:12:39.569Z,6.32
2023-02-25T12:15:34.199Z,6.42
2023-02-25T12:18:53.852Z,6.38
2023-02-25T12:22:01.955Z,6.11
2023-02-25T12:24:43.483Z,5.85
2023-02-25T12:27:43.515Z,5.67
2023-02-25T12:30:57.185Z,5.51
2023-02-25T12:33:53.176Z,5.43
2023-02-25T12:36:35.575Z,5.38
2023-02-25T12:39:21.790Z,5.38
2023-02-25T12:41:58.306Z,5.38
2023-02-25T12:45:03.668Z,5.39
2023-02-25T12:47:45.245Z,5.43
2023-02-25T12:50:24.501Z,5.49
2023-02-25T12:53:07.341Z,5.59
2023-02-25T12:56:00.380Z,5.69
2023-02-25T12:58:41.520Z,5.76
2023-02-25T13:01:50.554Z,5.92
2023-02-25T13:04:45.149Z,6.13
2023-02-25T13:07:36.835Z,6.26
2023-02-25T13:10:18.087Z,6.31
2023-02-25T13:13:02.724Z,6.28
2023-02-25T13:15:43.463Z,6.19
2023-02-25T13:18:25.079Z,6.17
2023-02-25T13:21:30.991Z,6.22
2023-02-25T13:24:20.136Z,6.33
2023-02-25T13:27:18.611Z,6.46
2023-02-25T13:30:07.127Z,6.60
2023-02-25T13:32:43.087Z,6.70
2023-02-25T13:35:26.045Z,6.87
2023-02-25T13:38:09.733Z,6.96
2023-02-25T13:40:51.745Z,6.98
2023-02-25T13:44:01.866Z,7.00
2023-02-25T13:47:00.294Z,7.09
2023-02-25T13:49:52.975Z,7.28
2023-02-25T13:52:55.342Z,7.49
2023-02-25T13:55:59.240Z,7.67
2023-02-25T13:58:42.464Z,7.75
2023-02-25T14:01:23.783Z,7.69
2023-02-25T14:04:36.127Z,7.65
2023-02-25T14:07:20.589Z,7.49
2023-02-25T14:10:01.472Z,7.34
2023-02-25T14:12:45.205Z,7.22
2023-02-25T14:15:22.752Z,7.08
2023-02-25T14:18:07.831Z,7.09
2023-02-25T14:20:45.172Z,7.16
2023-02-25T14:23:19.570Z,7.29
2023-02-25T14:26:14.620Z,7.47
2023-02-25T14:28:53.670Z,7.63
2023-02-25T14:31:33.486Z,7.80
2023-02-25T14:34:23.128Z,7.95
2023-02-25T14:37:09.454Z,8.10
2023-02-25T14:39:50.314Z,8.18
2023-02-25T14:42:41.573Z,8.21
2023-02-25T14:45:21.499Z,8.20
2023-02-25T14:47:58.753Z,8.18
2023-02-25T14:50:32.320Z,8.14
2023-02-25T14:53:20.980Z,8.24
2023-02-25T14:56:21.692Z,8.43
2023-02-25T14:59:02.226Z,8.62
2023-02-25T15:01:48.242Z,8.79
2023-02-25T15:04:49.968Z,8.81
2023-02-25T15:07:41.815Z,8.77
2023-02-25T15:10:25.864Z,8.68
2023-02-25T15:13:14.274Z,8.66
2023-02-25T15:16:17.164Z,8.62
2023-02-25T15:19:17.053Z,8.71
2023-02-25T15:21:48.429Z,8.78
2023-02-25T15:24:38.706Z,8.93
2023-02-25T15:27:40.401Z,9.02
2023-02-25T15:30:10.371Z,9.08
2023-02-25T15:33:12.700Z,9.03
2023-02-25T15:35:59.076Z,9.00
2023-02-25T15:38:42.085Z,9.06
2023-02-25T15:41:46.069Z,9.04
2023-02-25T15:44:37.802Z,8.90
2023-02-25T15:47:34.356Z,8.85
2023-02-25T15:50:04.881Z,8.74
2023-02-25T15:52:55.441Z,8.63
2023-02-25T15:55:40.537Z,8.47
2023-02-25T15:58:26.445Z,8.27
2023-02-25T16:00:55.400Z,8.13
2023-02-25T16:03:39.345Z,7.98
2023-02-25T16:06:14.786Z,7.89
2023-02-25T16:08:50.335Z,7.74
2023-02-25T16:11:36.327Z,7.60
2023-02-25T16:14:08.085Z,7.41
2023-02-25T16:16:40.683Z,7.23
2023-02-25T16:19:15.364Z,7.07
2023-02-25T16:21:46.761Z,6.94
2023-02-25T16:24:15.441Z,6.83
2023-02-25T16:26:49.989Z,6.72
2023-02-25T16:29:37.987Z,6.58
2023-02-25T16:32:13.446Z,6.45
2023-02-25T16:34:51.563Z,6.34
2023-02-25T16:37:30.004Z,6.19
2023-02-25T16:39:59.407Z,6.11
2023-02-25T16:42:28.075Z,6.04
2023-02-25T16:45:00.396Z,5.98
2023-02-25T16:47:30.537Z,5.92
2023-02-25T16:50:02.265Z,5.80
2023-02-25T16:52:35.842Z,5.71
2023-02-25T16:55:10.369Z,5.63
2023-02-25T16:57:40.775Z,5.57
2023-02-25T17:00:17.102Z,5.52
2023-02-25T17:02:48.400Z,5.47
2023-02-25T17:05:25.538Z,5.42
2023-02-25T17:08:01.195Z,5.37
2023-02-25T17:10:33.672Z,5.34
2023-02-25T17:13:05.238Z,5.31
2023-02-25T17:15:37.896Z,5.26
2023-02-25T17:18:11.304Z,5.18
2023-02-25T17:20:41.516Z,5.11
2023-02-25T17:23:14.917Z,5.04
2023-02-25T17:27:12.583Z,4.95
2023-02-25T17:29:41.236Z,4.89
2023-02-25T17:32:20.205Z,4.85
2023-02-25T17:34:50.134Z,4.81
2023-02-25T17:37:19.650Z,4.78
2023-02-25T17:39:48.856Z,4.74
2023-02-25T17:42:33.940Z,4.69
2023-02-25T17:45:02.838Z,4.65
2023-02-25T17:47:33.651Z,4.61
2023-02-25T17:50:21.171Z,4.53
2023-02-25T17:52:50.310Z,4.47
2023-02-25T17:55:24.950Z,4.39
2023-02-25T17:57:58.988Z,4.36
2023-02-25T18:00:32.321Z,4.34
2023-02-25T18:03:17.937Z,4.29
2023-02-25T18:05:52.121Z,4.22
2023-02-25T18:08:23.617Z,4.17
2023-02-25T18:10:55.052Z,4.12
2023-02-25T18:13:35.209Z,4.07
2023-02-25T18:16:32.062Z,4.04
2023-02-25T18:19:01.440Z,3.99
2023-02-25T18:21:30.220Z,3.97
2023-02-25T18:24:00.334Z,3.96
2023-02-25T18:26:28.832Z,3.91
2023-02-25T18:28:58.651Z,3.91
2023-02-25T18:31:27.405Z,3.88
2023-02-25T18:33:56.084Z,3.85
2023-02-25T18:36:27.840Z,3.82
2023-02-25T18:39:01.704Z,3.78
2023-02-25T18:41:30.181Z,3.72
2023-02-25T18:44:01.393Z,3.68
2023-02-25T18:46:30.698Z,3.64
2023-02-25T18:48:59.251Z,3.61
2023-02-25T18:51:27.976Z,3.61
2023-02-25T18:53:56.404Z,3.57
2023-02-25T18:56:25.196Z,3.54
2023-02-25T18:58:54.705Z,3.52
2023-02-25T19:01:27.310Z,3.49
2023-02-25T19:03:59.861Z,3.46
2023-02-25T19:06:29.133Z,3.43
2023-02-25T19:08:57.644Z,3.41
2023-02-25T19:11:27.945Z,3.39
2023-02-25T19:13:56.525Z,3.35
2023-02-25T19:16:26.701Z,3.32
2023-02-25T19:18:55.361Z,3.28
2023-02-25T19:21:24.015Z,3.21
2023-02-25T19:23:53.584Z,3.17
2023-02-25T19:26:22.644Z,3.13
2023-02-25T19:28:51.271Z,3.09
2023-02-25T19:31:20.482Z,3.03
2023-02-25T19:33:50.381Z,2.99
2023-02-25T19:36:18.961Z,2.93
2023-02-25T19:38:47.564Z,2.86
2023-02-25T19:41:16.017Z,2.82
2023-02-25T19:43:44.709Z,2.77
2023-02-25T19:46:17.100Z,2.73
2023-02-25T19:48:45.711Z,2.68
2023-02-25T19:51:15.594Z,2.62
2023-02-25T19:53:45.563Z,2.56
2023-02-25T19:56:14.073Z,2.52
2023-02-25T19:58:42.657Z,2.49
2023-02-25T20:01:11.199Z,2.46
2023-02-25T20:03:39.882Z,2.43
2023-02-25T20:06:12.945Z,2.40
2023-02-25T20:08:44.114Z,2.38
2023-02-25T20:11:13.280Z,2.33
2023-02-25T20:13:41.725Z,2.31
2023-02-25T20:16:10.205Z,2.28
2023-02-25T20:18:38.938Z,2.23
2023-02-25T20:21:07.825Z,2.22
2023-02-25T20:23:37.821Z,2.20
2023-02-25T20:26:12.695Z,2.18
2023-02-25T20:28:41.823Z,2.14
2023-02-25T20:31:12.557Z,2.12
2023-02-25T20:33:41.689Z,2.09
2023-02-25T20:36:19.644Z,2.07
2023-02-25T20:38:58.786Z,2.04
2023-02-25T20:41:28.869Z,2.01
2023-02-25T20:43:57.495Z,1.99
2023-02-25T20:46:28.642Z,1.96
2023-02-25T20:48:57.695Z,1.93
2023-02-25T20:51:26.562Z,1.89
2023-02-25T20:53:55.405Z,1.86
2023-02-25T20:56:26.483Z,1.83
2023-02-25T20:58:56.396Z,1.80
2023-02-25T21:01:27.521Z,1.78
2023-02-25T21:03:55.954Z,1.77
2023-02-25T21:06:26.607Z,1.76
2023-02-25T21:08:55.850Z,1.75
2023-02-25T21:11:25.516Z,1.74
2023-02-25T21:13:54.619Z,1.73
2023-02-25T21:16:25.297Z,1.72
2023-02-25T21:18:54.865Z,1.71
2023-02-25T21:21:23.407Z,1.71
2023-02-25T21:23:52.556Z,1.70
2023-02-25T21:26:21.047Z,1.68
2023-02-25T21:28:49.447Z,1.67
2023-02-25T21:31:18.432Z,1.65
2023-02-25T21:33:48.364Z,1.64
2023-02-25T21:36:16.829Z,1.62
2023-02-25T21:38:45.312Z,1.61
2023-02-25T21:41:15.430Z,1.60
2023-02-25T21:43:43.995Z,1.59
2023-02-25T21:46:16.199Z,1.57
2023-02-25T21:48:46.822Z,1.55
2023-02-25T21:51:18.987Z,1.53
2023-02-25T21:53:47.628Z,1.51
2023-02-25T21:56:18.316Z,1.53
2023-02-25T21:58:47.394Z,1.51
2023-02-25T22:01:18.150Z,1.52
2023-02-25T22:03:47.361Z,1.51
2023-02-25T22:06:17.881Z,1.51
2023-02-25T22:08:46.813Z,1.50
2023-02-25T22:11:16.728Z,1.49
2023-02-25T22:13:45.160Z,1.49
2023-02-25T22:16:14.405Z,1.48
2023-02-25T22:18:43.508Z,1.47
2023-02-25T22:21:13.764Z,1.46
2023-02-25T22:23:44.313Z,1.45
2023-02-25T22:26:15.537Z,1.45
2023-02-25T22:28:44.795Z,1.44
2023-02-25T22:31:14.859Z,1.42
2023-02-25T22:33:44.139Z,1.42
2023-02-25T22:36:13.971Z,1.40
2023-02-25T22:38:45.019Z,1.39
2023-02-25T22:41:15.323Z,1.36
2023-02-25T22:43:44.229Z,1.34
2023-02-25T22:46:15.014Z,1.31
2023-02-25T22:48:45.375Z,1.30
2023-02-25T22:51:15.061Z,1.29
2023-02-25T22:53:45.205Z,1.29
2023-02-25T22:56:13.618Z,1.28
2023-02-25T22:58:42.080Z,1.26
2023-02-25T23:01:11.666Z,1.24
2023-02-25T23:03:40.682Z,1.23
2023-02-25T23:06:09.181Z,1.22
2023-02-25T23:08:37.847Z,1.20
2023-02-25T23:11:14.331Z,1.19
2023-02-25T23:13:47.400Z,1.18
2023-02-25T23:16:16.616Z,1.16
2023-02-25T23:18:45.816Z,1.14
2023-02-25T23:21:19.089Z,1.12
2023-02-25T23:23:49.143Z,1.11
2023-02-25T23:26:21.081Z,1.08
2023-02-25T23:28:50.183Z,1.07
2023-02-25T23:31:19.848Z,1.08
2023-02-25T23:33:48.680Z,1.07
2023-02-25T23:36:17.228Z,1.05
2023-02-25T23:38:45.645Z,1.05
2023-02-25T23:41:14.243Z,1.05
2023-02-25T23:43:44.046Z,1.05
2023-02-25T23:46:12.569Z,1.03
2023-02-25T23:48:40.933Z,1.04
2023-02-25T23:51:09.720Z,1.03
2023-02-25T23:53:38.235Z,1.03
2023-02-25T23:56:07.823Z,1.02
2023-02-25T23:58:36.928Z,1.01
